• Join FlightAware (Why Join?)
  • Login
  • US Flag 
02:10PM EDT


 

Airport Tracker/Info


-or-


 

Live Flight TrackerFlight Track Log ✈ USC105 ✈ 08-May-2013 ✈ KYIP - KDPA

Flight Track Log - Related Links

Times and Time Zones

All times are in EDT time to prevent confusion due to time zone crossing. See the USC105 flight status page for this flight to view local times or setup timezone preferences in your user account.

Time Position Orientation Groundspeed Altitude Reporting Facility
EDT Latitude Longitude Course Direction KTS MPH feet Rate Location/Type
12:18AM 42.2250 -83.5919 264° West 124 143 2,300  Level Cleveland Center
12:19AM 42.2236 -83.6397 268° West 119 137 3,400 960 Climbing Cleveland Center
12:19AM 42.2203 -83.6814 264° West 135 155 4,200 840 Climbing Cleveland Center
12:20AM 42.2169 -83.7347 265° West 134 154 5,100 840 Climbing Cleveland Center
12:21AM 42.2153 -83.7878 268° West 145 167 6,000 360 Climbing Cleveland Center
12:23AM 42.2156 -83.8550 270° West 198 228 5,900  Descending Cleveland Center
12:25AM 42.2103 -84.0103 267° West 190 219 6,000  Climbing Chicago Center
12:26AM 42.2047 -84.0817 264° West 189 217 6,000  Level Chicago Center
12:27AM 42.2017 -84.1536 267° West 192 221 6,000  Level Chicago Center
12:28AM 42.1975 -84.2239 265° West 190 219 6,000  Level Chicago Center
12:29AM 42.1931 -84.2956 265° West 191 220 6,000  Level Chicago Center
12:30AM 42.1908 -84.3667 268° West 191 220 6,000  Level Chicago Center
12:31AM 42.1867 -84.4367 265° West 188 216 6,000  Level Chicago Center
12:32AM 42.1828 -84.5053 266° West 186 214 6,000  Level Chicago Center
12:33AM 42.1789 -84.5739 266° West 190 219 6,000  Level Chicago Center
12:34AM 42.1744 -84.6433 265° West 188 216 6,000  Level Chicago Center
12:35AM 42.1700 -84.7281 266° West 189 217 6,000  Level Chicago Center
12:36AM 42.1656 -84.8000 265° West 192 221 6,000  Level Chicago Center
12:37AM 42.1614 -84.8703 265° West 191 220 6,000  Level Chicago Center
12:38AM 42.1578 -84.9417 266° West 191 220 6,000  Level Chicago Center
12:39AM 42.1528 -85.0125 265° West 192 221 6,000  Level Chicago Center
12:40AM 42.1489 -85.0822 266° West 189 217 6,000  Level Chicago Center
12:41AM 42.1444 -85.1528 265° West 190 219 6,000  Level Chicago Center
12:42AM 42.1403 -85.2225 265° West 188 216 6,000  Level Chicago Center
12:43AM 42.1358 -85.2939 265° West 191 220 6,000  Level Chicago Center
12:44AM 42.1314 -85.3636 265° West 190 219 6,000  Level Chicago Center
12:45AM 42.1267 -85.4336 265° West 189 217 6,000  Level Chicago Center
12:46AM 42.1222 -85.5031 265° West 188 216 6,000  Level Chicago Center
12:47AM 42.1181 -85.5733 265° West 189 217 6,000  Level Chicago Center
12:48AM 42.1131 -85.6428 264° West 188 216 6,000  Level Chicago Center
12:49AM 42.1083 -85.7119 265° West 187 215 6,000  Level Chicago Center
12:50AM 42.1031 -85.7808 264° West 186 214 6,000  Level Chicago Center
12:51AM 42.0992 -85.8508 266° West 187 215 6,000  Level Chicago Center
12:52AM 42.0947 -85.9197 265° West 187 215 6,000  Level Chicago Center
12:53AM 42.0889 -85.9881 263° West 185 213 6,000  Level Chicago Center
12:54AM 42.0842 -86.0581 265° West 188 216 6,000  Level Chicago Center
12:55AM 42.0783 -86.1414 265° West 187 215 6,000  Level Chicago Center
12:56AM 42.0733 -86.2103 264° West 187 215 6,000  Level Chicago Center
12:57AM 42.0692 -86.2800 265° West 187 215 6,000  Level Chicago Center
12:58AM 42.0639 -86.3475 264° West 184 212 6,000  Level Chicago Center
12:59AM 42.0581 -86.4175 264° West 187 215 6,000  Level Chicago Center
01:00AM 42.0525 -86.4842 264° West 182 209 6,000  Level Chicago Center
01:01AM 42.0481 -86.5539 265° West 186 214 6,000  Level Chicago Center
01:02AM 42.0433 -86.6217 265° West 184 212 6,000  Level Chicago Center
01:03AM 42.0381 -86.6894 264° West 184 212 6,000  Level Chicago Center
01:04AM 42.0353 -86.7547 267° West 184 212 6,000  Level Chicago Center
01:05AM 42.0297 -86.8231 264° West 185 213 6,000  Level Chicago Center
01:06AM 42.0242 -86.8897 264° West 182 209 6,000  Level Chicago Center
01:07AM 42.0183 -86.9581 263° West 183 211 6,000  Level Chicago Center
01:08AM 42.0122 -87.0389 264° West 182 209 6,000 -60 Level Chicago Center
01:09AM 42.0075 -87.1067 265° West 184 212 5,900 -60 Descending Chicago Center
01:10AM 42.0011 -87.1739 263° West 183 211 5,900  Level Chicago Center
01:11AM 41.9967 -87.2411 265° West 181 208 5,900  Level Chicago Center
01:12AM 41.9906 -87.3089 263° West 182 209 5,900  Level Chicago Center
01:13AM 41.9858 -87.3767 265° West 184 212 5,900  Level Chicago Center
01:14AM 41.9803 -87.4433 264° West 181 208 5,900  Level Chicago Center
01:15AM 41.9744 -87.5103 263° West 182 209 5,900  Level Chicago Center
01:16AM 41.9694 -87.5761 264° West 180 207 5,900  Level Chicago Center
01:17AM 41.9667 -87.6333 266° West 174 200 5,900  Level Chicago TRACON
01:18AM 41.9500 -87.7167 255° West 173 199 5,900  Level Chicago TRACON
01:19AM 41.9500 -87.7667 270° West 173 199 5,900  Level Chicago TRACON
01:20AM 41.9500 -87.8333 270° West 171 197 5,900  Level Chicago TRACON
01:21AM 41.9333 -87.9000 251° West 174 200 5,900  Level Chicago TRACON
01:22AM 41.9333 -87.9500 270° West 179 206 5,900  Level Chicago TRACON
01:23AM 41.9333 -88.0000 270° West 166 191 5,900 -300 Level Chicago TRACON
01:24AM 41.9333 -88.0667 270° West 174 200 5,400 -720 Descending Chicago TRACON
01:25AM 41.9000 -88.1333 236° Southwest 195 224 4,500 -1,020 Descending Chicago TRACON
01:26AM 41.8667 -88.1833 228° Southwest 188 216 3,400 -1,200 Descending Chicago TRACON
01:27AM 41.8500 -88.2500 251° West 198 228 2,100 -1,320 Descending Chicago TRACON
01:29AM 41.9000 -88.2333 270° West  Level FlightAware Approximate
01:36AM 41.9071 -88.2480 270° West  Level Estimated
01:37AM 41.9071 -88.2480 270° West  Level Estimated
01:38AM 41.9071 -88.2480 270° West  Level Estimated
01:39AM 41.9071 -88.2480 270° West  Level Estimated
01:40AM 41.9071 -88.2480 270° West  Level Estimated
01:41AM 41.9071 -88.2480 270° West  Level Estimated
01:42AM 41.9071 -88.2480 270° West  Level Estimated
01:43AM 41.9071 -88.2480 270° West  Level Estimated
01:44AM 41.9071 -88.2480 270° West  Level Estimated